地図

経路データ

SID SEASON NUMBER BASIN SUBBASIN NAME ISO_TIME NATURE LAT LON WMO_WIND WMO_PRES WMO_AGENCY TRACK_TYPE DIST2LAND LANDFALL IFLAG USA_AGENCY USA_ATCF_ID USA_LAT USA_LON USA_RECORD USA_STATUS USA_WIND USA_PRES USA_SSHS USA_R34_NE USA_R34_SE USA_R34_SW USA_R34_NW USA_R50_NE USA_R50_SE USA_R50_SW USA_R50_NW USA_R64_NE USA_R64_SE USA_R64_SW USA_R64_NW USA_POCI USA_ROCI USA_RMW USA_EYE TOKYO_LAT TOKYO_LON TOKYO_GRADE TOKYO_WIND TOKYO_PRES TOKYO_R50_DIR TOKYO_R50_LONG TOKYO_R50_SHORT TOKYO_R30_DIR TOKYO_R30_LONG TOKYO_R30_SHORT TOKYO_LAND CMA_LAT CMA_LON CMA_CAT CMA_WIND CMA_PRES HKO_LAT HKO_LON HKO_CAT HKO_WIND HKO_PRES NEWDELHI_LAT NEWDELHI_LON NEWDELHI_GRADE NEWDELHI_WIND NEWDELHI_PRES NEWDELHI_CI NEWDELHI_DP NEWDELHI_POCI REUNION_LAT REUNION_LON REUNION_TYPE REUNION_WIND REUNION_PRES REUNION_TNUM REUNION_CI REUNION_RMW REUNION_R34_NE REUNION_R34_SE REUNION_R34_SW REUNION_R34_NW REUNION_R50_NE REUNION_R50_SE REUNION_R50_SW REUNION_R50_NW REUNION_R64_NE REUNION_R64_SE REUNION_R64_SW REUNION_R64_NW BOM_LAT BOM_LON BOM_TYPE BOM_WIND BOM_PRES BOM_TNUM BOM_CI BOM_RMW BOM_R34_NE BOM_R34_SE BOM_R34_SW BOM_R34_NW BOM_R50_NE BOM_R50_SE BOM_R50_SW BOM_R50_NW BOM_R64_NE BOM_R64_SE BOM_R64_SW BOM_R64_NW BOM_ROCI BOM_POCI BOM_EYE BOM_POS_METHOD BOM_PRES_METHOD NADI_LAT NADI_LON NADI_CAT NADI_WIND NADI_PRES WELLINGTON_LAT WELLINGTON_LON WELLINGTON_WIND WELLINGTON_PRES DS824_LAT DS824_LON DS824_STAGE DS824_WIND DS824_PRES TD9636_LAT TD9636_LON TD9636_STAGE TD9636_WIND TD9636_PRES TD9635_LAT TD9635_LON TD9635_WIND TD9635_PRES TD9635_ROCI NEUMANN_LAT NEUMANN_LON NEUMANN_CLASS NEUMANN_WIND NEUMANN_PRES MLC_LAT MLC_LON MLC_CLASS MLC_WIND MLC_PRES USA_GUST BOM_GUST BOM_GUST_PER REUNION_GUST REUNION_GUST_PER USA_SEAHGT USA_SEARAD_NE USA_SEARAD_SE USA_SEARAD_SW USA_SEARAD_NW STORM_SPEED STORM_DIR
1930193N19122 1930 30 WP MM NOT_NAMED 1930-07-11 22:00:00 NR 19.1000 122.100 main 78 78 __________O___ -1 19.1000 122.100 4 11 0
1930193N19122 1930 30 WP MM NOT_NAMED 1930-07-12 00:00:00 NR 19.4479 122.107 main 111 123 __________P___ -1 19.4479 122.107 4 11 0
1930193N19122 1930 30 WP MM NOT_NAMED 1930-07-12 03:00:00 NR 19.9705 122.116 main 178 178 __________P___ -1 19.9705 122.116 4 11 1
1930193N19122 1930 30 WP MM NOT_NAMED 1930-07-12 06:00:00 NR 20.4951 122.117 main 199 159 __________P___ -1 20.4951 122.117 4 11 359
1930193N19122 1930 30 WP MM NOT_NAMED 1930-07-12 09:00:00 NR 21.0231 122.107 main 159 146 __________P___ -1 21.0231 122.107 4 11 0
1930193N19122 1930 30 WP MM NOT_NAMED 1930-07-12 10:00:00 NR 21.2000 122.100 main 146 128 __________O___ -1 21.2000 122.100 4 11 357
1930193N19122 1930 30 WP MM NOT_NAMED 1930-07-12 12:00:00 NR 21.5547 122.081 main 128 113 __________P___ -1 21.5547 122.081 4 11 356
1930193N19122 1930 30 WP MM NOT_NAMED 1930-07-12 15:00:00 NR 22.0809 122.039 main 113 83 __________P___ -1 22.0809 122.039 4 10 355
1930193N19122 1930 30 WP MM NOT_NAMED 1930-07-12 18:00:00 NR 22.5861 121.986 main 83 51 __________P___ -1 22.5861 121.986 4 10 354
1930193N19122 1930 30 WP MM NOT_NAMED 1930-07-12 21:00:00 NR 23.0547 121.923 main 51 51 __________P___ -1 23.0547 121.923 4 9 352
1930193N19122 1930 30 WP MM NOT_NAMED 1930-07-12 22:00:00 NR 23.2000 121.900 main 51 46 __________O___ -1 23.2000 121.900 4 8 352
1930193N19122 1930 30 WP MM NOT_NAMED 1930-07-13 00:00:00 NR 23.4676 121.856 main 46 30 __________P___ -1 23.4676 121.856 4 8 351
1930193N19122 1930 30 WP MM NOT_NAMED 1930-07-13 03:00:00 NR 23.8311 121.783 main 30 10 __________P___ -1 23.8311 121.783 4 7 349
1930193N19122 1930 30 WP MM NOT_NAMED 1930-07-13 06:00:00 NR 24.1659 121.705 main 10 0 __________P___ -1 24.1659 121.705 4 7 348
1930193N19122 1930 30 WP MM NOT_NAMED 1930-07-13 09:00:00 NR 24.4907 121.626 main 0 0 __________P___ -1 24.4907 121.626 4 7 348
1930193N19122 1930 30 WP MM NOT_NAMED 1930-07-13 10:00:00 NR 24.6000 121.600 main 0 0 __________O___ -1 24.6000 121.600 4 7 350
1930193N19122 1930 30 WP MM NOT_NAMED 1930-07-13 12:00:00 NR 24.8306 121.563 main 0 0 __________P___ -1 24.8306 121.563 4 7 352
1930193N19122 1930 30 WP MM NOT_NAMED 1930-07-13 15:00:00 NR 25.1765 121.507 main 0 0 __________P___ -1 25.1765 121.507 4 7 351
1930193N19122 1930 30 WP MM NOT_NAMED 1930-07-13 18:00:00 NR 25.5252 121.439 main 33 33 __________P___ -1 25.5252 121.439 4 7 348
1930193N19122 1930 30 WP MM NOT_NAMED 1930-07-13 21:00:00 NR 25.8799 121.341 main 78 78 __________P___ -1 25.8799 121.341 4 7 345
1930193N19122 1930 30 WP MM NOT_NAMED 1930-07-13 22:00:00 NR 26.0000 121.300 main 89 89 __________O___ -1 26.0000 121.300 4 8 341
1930193N19122 1930 30 WP MM NOT_NAMED 1930-07-14 00:00:00 NR 26.2469 121.206 main 113 81 __________P___ -1 26.2469 121.206 4 8 339
1930193N19122 1930 30 WP MM NOT_NAMED 1930-07-14 03:00:00 NR 26.6235 121.033 main 81 37 __________P___ -1 26.6235 121.033 4 8 336
1930193N19122 1930 30 WP MM NOT_NAMED 1930-07-14 06:00:00 NR 27.0023 120.825 main 37 0 __________P___ -1 27.0023 120.825 4 9 332
1930193N19122 1930 30 WP MM NOT_NAMED 1930-07-14 09:00:00 NR 27.3770 120.586 main 0 0 __________P___ -1 27.3770 120.586 4 9 330
1930193N19122 1930 30 WP MM NOT_NAMED 1930-07-14 10:00:00 NR 27.5000 120.500 main 0 0 __________O___ -1 27.5000 120.500 4 9 327
1930193N19122 1930 30 WP MM NOT_NAMED 1930-07-14 12:00:00 NR 27.7420 120.319 main 0 0 __________P___ -1 27.7420 120.319 4 9 325
1930193N19122 1930 30 WP MM NOT_NAMED 1930-07-14 15:00:00 NR 28.0967 120.030 main 0 0 __________P___ -1 28.0967 120.030 4 9 323
1930193N19122 1930 30 WP MM NOT_NAMED 1930-07-14 18:00:00 NR 28.4439 119.723 main 0 0 __________P___ -1 28.4439 119.723 4 9 322
1930193N19122 1930 30 WP MM NOT_NAMED 1930-07-14 21:00:00 NR 28.7864 119.407 main 0 0 __________P___ -1 28.7864 119.407 4 9 321
1930193N19122 1930 30 WP MM NOT_NAMED 1930-07-14 22:00:00 NR 28.9000 119.300 main 0 __________O___ -1 28.9000 119.300 4 9 320

デジタル台風データ・検索

IBTrACS Databaseについて

本データベースは、米国NOAAが公開する1842年以降の世界の熱帯低気圧のベストトラックデータアーカイブInternational Best Track Archive for Climate Stewardship (IBTrACS)を、ウェブで閲覧しやすい形式に変換したものです。

最終更新日:2021-10-21